Time;durP1;ratioP1;P1;durP2;ratioP2;P2;SDS_P1;SDS_P2;PMS_P1;PMS_P2;Temp;Humidity;BMP_temperature;BMP_pressure;BME280_temperature;BME280_humidity;BME280_pressure;Samples;Min_cycle;Max_cycle;Signal;HPM_P1;HPM_P2
2023/04/11 00:00:06;;;;;;;1.70;1.08;;;;;;;;;;5052728;28;20060;-70
2023/04/11 00:02:33;;;;;;;2.28;1.20;;;;;;;;;;5052940;28;20021;-71
2023/04/11 00:04:59;;;;;;;2.55;1.00;;;;;;;;;;5052988;28;20029;-71
2023/04/11 00:07:25;;;;;;;2.10;1.10;;;;;;;;;;5053113;28;20039;-71
2023/04/11 00:09:51;;;;;;;4.72;1.30;;;;;;;;;;5052913;28;20115;-71
2023/04/11 00:12:18;;;;;;;3.40;1.15;;;;;;;;;;5052940;28;20430;-70
2023/04/11 00:14:47;;;;;;;3.25;1.10;;;;;;;;;;5052878;28;20087;-71
2023/04/11 00:17:16;;;;;;;2.83;1.48;;;;;;;;;;5052734;28;20501;-71
2023/04/11 00:19:45;;;;;;;4.90;1.05;;;;;;;;;;5052814;28;20471;-70
2023/04/11 00:22:14;;;;;;;3.08;1.20;;;;;;;;;;5052725;28;20079;-70
2023/04/11 00:24:41;;;;;;;3.50;1.20;;;;;;;;;;5052423;28;20079;-70
2023/04/11 00:27:08;;;;;;;3.55;1.50;;;;;;;;;;5052912;28;20501;-70
2023/04/11 00:29:36;;;;;;;2.70;1.23;;;;;;;;;;5052517;28;20029;-70
2023/04/11 00:32:04;;;;;;;2.40;1.45;;;;;;;;;;5052783;28;20025;-70
2023/04/11 00:34:32;;;;;;;5.57;1.80;;;;;;;;;;5052143;28;20040;-71
2023/04/11 00:37:00;;;;;;;3.63;1.85;;;;;;;;;;5052805;28;20021;-71
2023/04/11 00:39:29;;;;;;;3.90;1.70;;;;;;;;;;5052687;28;20090;-71
2023/04/11 00:42:04;;;;;;;7.10;2.30;;;;;;;;;;5055529;28;20467;-70
2023/04/11 00:44:32;;;;;;;4.85;1.85;;;;;;;;;;5056422;28;20540;-70
2023/04/11 00:46:59;;;;;;;5.70;1.83;;;;;;;;;;5056277;28;20478;-71
2023/04/11 00:49:26;;;;;;;5.20;1.88;;;;;;;;;;5056201;28;20064;-70
2023/04/11 00:51:53;;;;;;;5.43;2.00;;;;;;;;;;5056389;28;20463;-70
2023/04/11 00:54:20;;;;;;;2.78;2.00;;;;;;;;;;5056026;28;20415;-72
2023/04/11 00:56:47;;;;;;;5.03;1.65;;;;;;;;;;5056068;28;20483;-70
2023/04/11 00:59:14;;;;;;;5.68;2.10;;;;;;;;;;5055444;28;20071;-71
2023/04/11 01:01:42;;;;;;;6.03;2.38;;;;;;;;;;5055967;28;20048;-71
2023/04/11 01:04:09;;;;;;;3.80;1.80;;;;;;;;;;5055882;28;20074;-70
2023/04/11 01:06:36;;;;;;;4.53;1.83;;;;;;;;;;5055928;28;20028;-71
2023/04/11 01:09:04;;;;;;;4.68;1.80;;;;;;;;;;5055794;28;20037;-70
2023/04/11 01:11:31;;;;;;;7.65;1.92;;;;;;;;;;5055842;28;20087;-70
2023/04/11 01:13:58;;;;;;;3.97;1.90;;;;;;;;;;5055467;28;20025;-70
2023/04/11 01:16:25;;;;;;;6.35;2.17;;;;;;;;;;5055716;28;20155;-70
2023/04/11 01:18:53;;;;;;;4.40;1.98;;;;;;;;;;5055680;28;20479;-70
2023/04/11 01:21:21;;;;;;;5.07;2.05;;;;;;;;;;5055571;28;20057;-71
2023/04/11 01:23:51;;;;;;;9.27;2.35;;;;;;;;;;5055646;28;20373;-70
2023/04/11 01:26:18;;;;;;;7.25;2.30;;;;;;;;;;5055533;28;20025;-70
2023/04/11 01:28:45;;;;;;;6.88;2.08;;;;;;;;;;5055085;28;20033;-70
2023/04/11 01:31:12;;;;;;;5.75;2.20;;;;;;;;;;5055005;28;20063;-71
2023/04/11 01:33:42;;;;;;;5.03;1.98;;;;;;;;;;5054878;28;20090;-71
2023/04/11 01:36:11;;;;;;;10.25;2.05;;;;;;;;;;5055485;28;20037;-71
2023/04/11 01:38:38;;;;;;;7.82;2.10;;;;;;;;;;5055069;28;20069;-70
2023/04/11 01:41:08;;;;;;;6.85;2.70;;;;;;;;;;5055285;28;20033;-71
2023/04/11 01:43:37;;;;;;;7.78;2.45;;;;;;;;;;5055220;28;20060;-70
2023/04/11 01:46:06;;;;;;;9.63;2.30;;;;;;;;;;5055177;28;20086;-71
2023/04/11 01:48:35;;;;;;;10.07;3.30;;;;;;;;;;5055214;28;20494;-70
2023/04/11 01:51:03;;;;;;;9.43;2.85;;;;;;;;;;5055148;28;20028;-71
2023/04/11 01:53:32;;;;;;;8.93;3.10;;;;;;;;;;5054536;28;20029;-71
2023/04/11 01:56:00;;;;;;;8.35;3.10;;;;;;;;;;5054635;28;20064;-71
2023/04/11 01:58:28;;;;;;;10.50;3.47;;;;;;;;;;5054788;28;20021;-72
2023/04/11 02:00:55;;;;;;;10.85;2.80;;;;;;;;;;5054551;28;20068;-70
2023/04/11 02:03:22;;;;;;;9.55;3.58;;;;;;;;;;5054729;28;20064;-70
2023/04/11 02:05:50;;;;;;;7.13;2.97;;;;;;;;;;5054323;28;20478;-70
2023/04/11 02:08:18;;;;;;;11.02;3.60;;;;;;;;;;5054287;28;20032;-70
2023/04/11 02:10:47;;;;;;;11.05;3.25;;;;;;;;;;5054239;28;20056;-70
2023/04/11 02:13:14;;;;;;;12.23;3.58;;;;;;;;;;5054579;28;20064;-71
2023/04/11 02:15:43;;;;;;;11.77;3.38;;;;;;;;;;5054657;28;20440;-70
2023/04/11 02:18:11;;;;;;;12.20;3.72;;;;;;;;;;5054652;28;20421;-71
2023/04/11 02:20:39;;;;;;;15.95;4.07;;;;;;;;;;5054207;28;20116;-71
2023/04/11 02:23:08;;;;;;;12.32;4.63;;;;;;;;;;5054048;28;20029;-71
2023/04/11 02:25:37;;;;;;;12.82;4.07;;;;;;;;;;5054336;28;20474;-71
2023/04/11 02:28:05;;;;;;;18.52;4.68;;;;;;;;;;5054029;28;20486;-70
2023/04/11 02:30:34;;;;;;;18.30;4.50;;;;;;;;;;5054446;28;20025;-71
2023/04/11 02:33:02;;;;;;;14.43;4.40;;;;;;;;;;5053907;28;20084;-71
2023/04/11 02:35:31;;;;;;;15.68;5.53;;;;;;;;;;5054404;28;20506;-71
2023/04/11 02:38:00;;;;;;;23.77;5.70;;;;;;;;;;5054206;28;20430;-71
2023/04/11 02:40:29;;;;;;;17.38;5.72;;;;;;;;;;5053643;28;20441;-70
2023/04/11 02:42:58;;;;;;;17.45;6.07;;;;;;;;;;5054104;28;20387;-71
2023/04/11 02:45:25;;;;;;;22.00;6.75;;;;;;;;;;5054195;28;20387;-70
2023/04/11 02:47:52;;;;;;;16.88;6.38;;;;;;;;;;5053990;28;20056;-71
2023/04/11 02:50:21;;;;;;;23.73;6.78;;;;;;;;;;5053529;28;20450;-70
2023/04/11 02:52:49;;;;;;;20.58;7.65;;;;;;;;;;5053982;28;20033;-70
2023/04/11 02:55:17;;;;;;;21.50;7.47;;;;;;;;;;5053427;28;20056;-70
2023/04/11 02:57:44;;;;;;;24.92;8.10;;;;;;;;;;5053711;28;20389;-71
2023/04/11 03:00:12;;;;;;;23.25;7.68;;;;;;;;;;5053582;28;20025;-72
2023/04/11 03:02:41;;;;;;;25.65;8.13;;;;;;;;;;5053210;28;20033;-71
2023/04/11 03:05:09;;;;;;;21.63;8.02;;;;;;;;;;5053356;28;20025;-71
2023/04/11 03:07:39;;;;;;;22.45;8.18;;;;;;;;;;5053714;28;20119;-71
2023/04/11 03:10:08;;;;;;;24.10;7.32;;;;;;;;;;5053633;28;20033;-71
2023/04/11 03:12:36;;;;;;;25.55;8.23;;;;;;;;;;5053663;28;20037;-71
2023/04/11 03:15:03;;;;;;;25.77;8.48;;;;;;;;;;5053656;28;20059;-71
2023/04/11 03:17:31;;;;;;;29.33;8.55;;;;;;;;;;5053776;28;20103;-72
2023/04/11 03:19:59;;;;;;;27.77;8.48;;;;;;;;;;5053477;28;20398;-71
2023/04/11 03:22:27;;;;;;;32.15;9.25;;;;;;;;;;5053473;28;20024;-71
2023/04/11 03:24:55;;;;;;;18.73;7.85;;;;;;;;;;5053434;28;20112;-71
2023/04/11 03:27:22;;;;;;;25.02;9.23;;;;;;;;;;5052941;28;20052;-71
2023/04/11 03:29:50;;;;;;;28.08;8.82;;;;;;;;;;5053276;28;20072;-71
2023/04/11 03:32:19;;;;;;;25.10;8.00;;;;;;;;;;5053045;28;20040;-71
2023/04/11 03:34:47;;;;;;;25.13;8.38;;;;;;;;;;5053234;28;20037;-71
2023/04/11 03:37:14;;;;;;;33.45;9.77;;;;;;;;;;5053158;28;20025;-72
2023/04/11 03:39:42;;;;;;;29.55;8.50;;;;;;;;;;5052739;28;20029;-71
2023/04/11 03:42:11;;;;;;;35.83;9.88;;;;;;;;;;5053323;28;20044;-71
2023/04/11 03:44:40;;;;;;;24.90;8.63;;;;;;;;;;5053222;28;20386;-71
2023/04/11 03:47:08;;;;;;;23.63;8.63;;;;;;;;;;5053148;28;20447;-71
2023/04/11 03:49:35;;;;;;;27.40;8.32;;;;;;;;;;5053227;28;20029;-71
2023/04/11 03:52:03;;;;;;;24.98;8.48;;;;;;;;;;5053050;28;20036;-71
2023/04/11 03:54:31;;;;;;;31.90;9.43;;;;;;;;;;5052758;28;20487;-71
2023/04/11 03:56:59;;;;;;;28.55;9.70;;;;;;;;;;5052835;28;20017;-71
2023/04/11 03:59:26;;;;;;;31.00;8.90;;;;;;;;;;5053078;28;20032;-71
2023/04/11 04:01:54;;;;;;;25.77;9.05;;;;;;;;;;5052477;28;20033;-71
2023/04/11 04:04:22;;;;;;;26.05;8.32;;;;;;;;;;5053023;28;20025;-70
2023/04/11 04:06:49;;;;;;;32.95;10.63;;;;;;;;;;5053009;28;20029;-71
2023/04/11 04:09:17;;;;;;;31.83;10.10;;;;;;;;;;5053067;28;20025;-71
2023/04/11 04:11:43;;;;;;;31.77;9.93;;;;;;;;;;5052588;28;20029;-71
2023/04/11 04:14:12;;;;;;;31.80;10.00;;;;;;;;;;5052927;28;20127;-71
2023/04/11 04:16:41;;;;;;;30.33;9.95;;;;;;;;;;5055555;28;20079;-71
2023/04/11 04:19:09;;;;;;;26.25;9.70;;;;;;;;;;5056756;28;20033;-72
2023/04/11 04:21:36;;;;;;;31.00;9.23;;;;;;;;;;5056569;28;20060;-71
2023/04/11 04:24:04;;;;;;;29.10;9.77;;;;;;;;;;5056334;28;20386;-71
2023/04/11 04:26:30;;;;;;;32.50;9.52;;;;;;;;;;5056292;28;20506;-72
2023/04/11 04:29:03;;;;;;;31.80;9.80;;;;;;;;;;5056302;28;20025;-71
2023/04/11 04:31:32;;;;;;;24.77;9.85;;;;;;;;;;5056018;28;20079;-72
2023/04/11 04:34:07;;;;;;;27.33;10.10;;;;;;;;;;5055919;28;20070;-71
2023/04/11 04:36:55;;;;;;;30.83;9.25;;;;;;;;;;5056208;28;20037;-71
2023/04/11 04:39:24;;;;;;;29.77;9.40;;;;;;;;;;5056394;28;20475;-71
2023/04/11 04:41:57;;;;;;;25.70;8.50;;;;;;;;;;5056008;28;20025;-71
2023/04/11 04:44:24;;;;;;;27.70;9.02;;;;;;;;;;5056313;28;20056;-70
2023/04/11 04:46:54;;;;;;;38.88;10.75;;;;;;;;;;5056234;28;20051;-71
2023/04/11 04:49:19;;;;;;;25.60;8.32;;;;;;;;;;5056215;28;20087;-71
2023/04/11 04:51:46;;;;;;;14.85;5.88;;;;;;;;;;5056277;28;20483;-70
2023/04/11 04:54:12;;;;;;;12.93;4.22;;;;;;;;;;5056250;28;20033;-70
2023/04/11 04:56:38;;;;;;;16.08;6.45;;;;;;;;;;5055825;28;20033;-71
2023/04/11 04:59:04;;;;;;;17.60;6.50;;;;;;;;;;5056582;28;20123;-71
2023/04/11 05:01:31;;;;;;;17.23;7.50;;;;;;;;;;5056073;28;20032;-72
2023/04/11 05:03:58;;;;;;;17.42;7.43;;;;;;;;;;5055869;28;20055;-71
2023/04/11 05:06:27;;;;;;;24.77;7.88;;;;;;;;;;5056050;28;20025;-71
2023/04/11 05:08:55;;;;;;;23.30;8.35;;;;;;;;;;5055838;28;20029;-71
2023/04/11 05:11:21;;;;;;;24.35;8.82;;;;;;;;;;5055937;28;20104;-71
2023/04/11 05:13:46;;;;;;;28.58;9.88;;;;;;;;;;5055458;28;20045;-71
2023/04/11 05:16:12;;;;;;;37.42;11.23;;;;;;;;;;5055978;28;20096;-71
2023/04/11 05:18:38;;;;;;;28.00;9.05;;;;;;;;;;5055774;28;20036;-71
2023/04/11 05:21:04;;;;;;;29.80;9.68;;;;;;;;;;5055231;28;20061;-71
2023/04/11 05:23:30;;;;;;;30.52;10.25;;;;;;;;;;5055831;28;20067;-71
2023/04/11 05:25:56;;;;;;;29.25;10.35;;;;;;;;;;5055210;28;20546;-71
2023/04/11 05:28:22;;;;;;;31.50;10.68;;;;;;;;;;5055276;28;20124;-71
2023/04/11 05:30:48;;;;;;;34.58;10.07;;;;;;;;;;5055664;28;20068;-71
2023/04/11 05:33:14;;;;;;;35.92;10.73;;;;;;;;;;5055177;28;20056;-71
2023/04/11 05:35:40;;;;;;;30.58;9.27;;;;;;;;;;5055476;28;20036;-71
2023/04/11 05:38:08;;;;;;;21.02;9.90;;;;;;;;;;5055079;28;20028;-71
2023/04/11 05:40:35;;;;;;;32.72;9.88;;;;;;;;;;5055195;28;20391;-71
2023/04/11 05:43:01;;;;;;;19.63;7.70;;;;;;;;;;5055429;28;20025;-72
2023/04/11 05:45:27;;;;;;;31.40;7.75;;;;;;;;;;5055164;28;20032;-71
2023/04/11 05:47:53;;;;;;;23.25;8.98;;;;;;;;;;5055201;28;20075;-71
2023/04/11 05:50:19;;;;;;;18.70;5.40;;;;;;;;;;5054792;28;20441;-70
2023/04/11 05:52:45;;;;;;;19.15;5.95;;;;;;;;;;5055056;28;20116;-70
2023/04/11 05:55:11;;;;;;;21.20;6.45;;;;;;;;;;5054897;28;20025;-71
2023/04/11 05:57:37;;;;;;;23.85;6.20;;;;;;;;;;5054826;28;20447;-72
2023/04/11 06:00:12;;;;;;;21.20;5.70;;;;;;;;;;5057823;28;20032;-75
2023/04/11 06:02:38;;;;;;;22.95;6.28;;;;;;;;;;5056174;28;20093;-78
2023/04/11 06:05:04;;;;;;;17.75;5.53;;;;;;;;;;5054487;28;20025;-77
2023/04/11 06:07:31;;;;;;;23.95;5.47;;;;;;;;;;5056690;28;20112;-75
2023/04/11 06:09:57;;;;;;;17.65;4.70;;;;;;;;;;5067033;28;20016;-75
2023/04/11 06:12:23;;;;;;;15.02;5.13;;;;;;;;;;5058371;28;20067;-76
2023/04/11 06:14:49;;;;;;;14.38;4.68;;;;;;;;;;5059120;28;20033;-81
2023/04/11 06:17:15;;;;;;;18.17;4.22;;;;;;;;;;5061606;28;20029;-80
2023/04/11 06:19:41;;;;;;;14.13;3.92;;;;;;;;;;5080485;28;20029;-80
2023/04/11 06:22:07;;;;;;;15.75;4.63;;;;;;;;;;5061803;28;20048;-82
2023/04/11 06:24:34;;;;;;;21.08;5.43;;;;;;;;;;5048917;28;20039;-76
2023/04/11 06:27:00;;;;;;;14.93;5.03;;;;;;;;;;5058367;28;20458;-76
2023/04/11 06:29:26;;;;;;;20.08;5.13;;;;;;;;;;5047838;28;20052;-77
2023/04/11 06:31:52;;;;;;;19.27;5.50;;;;;;;;;;5051833;28;20039;-76
2023/04/11 06:34:18;;;;;;;17.75;5.25;;;;;;;;;;5056409;28;20095;-76
2023/04/11 06:36:46;;;;;;;24.75;5.70;;;;;;;;;;5065116;28;20494;-77
2023/04/11 06:39:13;;;;;;;17.20;5.88;;;;;;;;;;5076217;28;20394;-77
2023/04/11 06:41:38;;;;;;;18.73;5.07;;;;;;;;;;5070997;28;20438;-76
2023/04/11 06:44:04;;;;;;;13.40;4.78;;;;;;;;;;5062776;28;20032;-78
2023/04/11 06:46:30;;;;;;;16.45;4.60;;;;;;;;;;5059522;28;20506;-78
2023/04/11 06:48:56;;;;;;;12.60;4.05;;;;;;;;;;5058581;28;20029;-79
2023/04/11 06:51:22;;;;;;;13.70;4.00;;;;;;;;;;5061090;28;20024;-84
2023/04/11 06:53:48;;;;;;;14.57;4.30;;;;;;;;;;5058014;28;20390;-82
2023/04/11 06:56:14;;;;;;;17.17;4.40;;;;;;;;;;5059011;28;20021;-77
2023/04/11 06:58:40;;;;;;;14.95;4.70;;;;;;;;;;5061709;28;20104;-75
2023/04/11 07:01:06;;;;;;;13.30;4.60;;;;;;;;;;5057316;28;20025;-76
2023/04/11 07:03:32;;;;;;;14.88;5.15;;;;;;;;;;5056698;28;20017;-75
2023/04/11 07:05:58;;;;;;;15.07;4.75;;;;;;;;;;5056169;28;20391;-77
2023/04/11 07:08:24;;;;;;;21.67;4.38;;;;;;;;;;5057062;28;20028;-77
2023/04/11 07:10:50;;;;;;;12.85;4.35;;;;;;;;;;5057088;28;20032;-82
2023/04/11 07:13:16;;;;;;;16.52;4.55;;;;;;;;;;5060129;28;20033;-80
2023/04/11 07:15:42;;;;;;;16.05;4.55;;;;;;;;;;5061538;28;20052;-81
2023/04/11 07:18:08;;;;;;;16.80;4.97;;;;;;;;;;5058220;28;20438;-77
2023/04/11 07:20:34;;;;;;;18.60;4.03;;;;;;;;;;5058442;28;20033;-76
2023/04/11 07:23:02;;;;;;;15.77;4.30;;;;;;;;;;5053221;28;20021;-74
2023/04/11 07:25:29;;;;;;;13.88;4.35;;;;;;;;;;5053187;28;20514;-74
2023/04/11 07:27:56;;;;;;;22.52;4.78;;;;;;;;;;5053614;28;20378;-75
2023/04/11 07:30:22;;;;;;;14.63;4.28;;;;;;;;;;5053756;28;20100;-76
2023/04/11 07:32:48;;;;;;;14.95;3.72;;;;;;;;;;5053991;28;20044;-76
2023/04/11 07:35:14;;;;;;;14.50;3.45;;;;;;;;;;5053525;28;20086;-76
2023/04/11 07:37:41;;;;;;;18.15;3.22;;;;;;;;;;5052821;28;20021;-77
2023/04/11 07:40:10;;;;;;;18.23;3.85;;;;;;;;;;5053563;28;20041;-75
2023/04/11 07:42:36;;;;;;;12.93;3.17;;;;;;;;;;5053311;28;20463;-75
2023/04/11 07:45:02;;;;;;;8.77;3.17;;;;;;;;;;5054363;28;20033;-76
2023/04/11 07:47:28;;;;;;;11.95;2.70;;;;;;;;;;5053345;28;20029;-75
2023/04/11 07:49:54;;;;;;;18.02;3.80;;;;;;;;;;5054341;28;20021;-75
2023/04/11 07:52:20;;;;;;;12.77;3.25;;;;;;;;;;5057450;28;20044;-75
2023/04/11 07:54:46;;;;;;;9.13;2.42;;;;;;;;;;5056940;28;20025;-75
2023/04/11 07:57:12;;;;;;;12.02;3.03;;;;;;;;;;5057245;28;20037;-76
2023/04/11 07:59:38;;;;;;;10.02;3.13;;;;;;;;;;5056701;28;20025;-76
2023/04/11 08:02:06;;;;;;;12.07;2.35;;;;;;;;;;5059430;28;20459;-79
2023/04/11 08:04:32;;;;;;;7.78;2.47;;;;;;;;;;5061314;28;20025;-77
2023/04/11 08:06:58;;;;;;;11.88;2.58;;;;;;;;;;5060259;28;20479;-78
2023/04/11 08:09:26;;;;;;;10.77;2.00;;;;;;;;;;5061415;28;20017;-79
2023/04/11 08:11:52;;;;;;;7.40;2.33;;;;;;;;;;5063134;28;20052;-88
2023/04/11 08:14:18;;;;;;;7.93;1.98;;;;;;;;;;5061170;28;20032;-79
2023/04/11 08:16:44;;;;;;;13.68;2.20;;;;;;;;;;5057834;28;20501;-78
2023/04/11 08:19:10;;;;;;;10.02;2.63;;;;;;;;;;5058696;28;20025;-80
2023/04/11 08:21:37;;;;;;;9.80;2.85;;;;;;;;;;5059670;28;20052;-80
2023/04/11 08:24:03;;;;;;;14.63;3.22;;;;;;;;;;5058659;28;20033;-82
2023/04/11 08:26:29;;;;;;;8.82;2.67;;;;;;;;;;5058433;28;20029;-77
2023/04/11 08:28:55;;;;;;;8.50;2.15;;;;;;;;;;5058795;28;20421;-78
2023/04/11 08:31:21;;;;;;;7.75;2.03;;;;;;;;;;5059075;28;20032;-78
2023/04/11 08:33:47;;;;;;;15.32;2.65;;;;;;;;;;5059269;28;20498;-77
2023/04/11 08:36:13;;;;;;;11.60;2.55;;;;;;;;;;5060204;28;20045;-79
2023/04/11 08:38:40;;;;;;;13.02;2.80;;;;;;;;;;5077398;28;20025;-77
2023/04/11 08:41:06;;;;;;;7.35;2.50;;;;;;;;;;5076923;28;20025;-77
2023/04/11 08:43:34;;;;;;;11.98;2.85;;;;;;;;;;5077192;28;20017;-76
2023/04/11 08:46:03;;;;;;;12.73;2.50;;;;;;;;;;5057909;28;20387;-78
2023/04/11 08:48:29;;;;;;;14.88;3.05;;;;;;;;;;5057231;28;20028;-78
2023/04/11 08:50:55;;;;;;;9.55;2.70;;;;;;;;;;5057261;28;20020;-77
2023/04/11 08:53:23;;;;;;;8.73;2.85;;;;;;;;;;5058301;28;20029;-78
2023/04/11 08:55:49;;;;;;;12.23;3.10;;;;;;;;;;5056546;28;20112;-79
2023/04/11 08:58:15;;;;;;;11.57;2.95;;;;;;;;;;5057184;28;20087;-79
2023/04/11 09:00:41;;;;;;;13.82;3.50;;;;;;;;;;5057097;28;20029;-83
2023/04/11 09:03:08;;;;;;;13.98;3.35;;;;;;;;;;5057998;28;20112;-81
2023/04/11 09:05:40;;;;;;;9.90;2.53;;;;;;;;;;5058930;28;20474;-80
2023/04/11 09:08:07;;;;;;;12.57;2.38;;;;;;;;;;5036758;28;20055;-77
2023/04/11 09:10:33;;;;;;;14.75;3.53;;;;;;;;;;5036897;28;20017;-82
2023/04/11 09:12:59;;;;;;;10.85;2.85;;;;;;;;;;5037291;28;20131;-80
2023/04/11 09:15:27;;;;;;;12.15;3.15;;;;;;;;;;5035895;28;20113;-75
2023/04/11 09:17:54;;;;;;;9.85;3.00;;;;;;;;;;5035640;28;20282;-75
2023/04/11 09:20:25;;;;;;;14.80;4.57;;;;;;;;;;5035562;28;20042;-76
2023/04/11 09:22:51;;;;;;;17.20;4.00;;;;;;;;;;5035732;28;20472;-74
2023/04/11 09:25:19;;;;;;;11.75;3.53;;;;;;;;;;5035615;28;20037;-77
2023/04/11 09:27:46;;;;;;;11.80;4.88;;;;;;;;;;5035590;28;20053;-75
2023/04/11 09:30:27;;;;;;;14.25;3.97;;;;;;;;;;5035100;28;20025;-76
2023/04/11 09:32:53;;;;;;;12.48;3.42;;;;;;;;;;5034856;28;20069;-76
2023/04/11 09:35:22;;;;;;;10.50;2.83;;;;;;;;;;5034971;28;20025;-75
2023/04/11 09:37:50;;;;;;;13.27;3.00;;;;;;;;;;5035446;28;20116;-74
2023/04/11 09:40:17;;;;;;;5.50;2.78;;;;;;;;;;5035424;28;20026;-74
2023/04/11 09:42:44;;;;;;;11.45;3.28;;;;;;;;;;5035037;28;20021;-74
2023/04/11 09:45:25;;;;;;;6.50;2.30;;;;;;;;;;5035324;28;20502;-73
2023/04/11 09:47:52;;;;;;;8.70;2.50;;;;;;;;;;5035351;28;20479;-74
2023/04/11 09:50:19;;;;;;;8.52;2.65;;;;;;;;;;5034750;28;20029;-73
2023/04/11 09:52:45;;;;;;;6.95;2.72;;;;;;;;;;5034903;28;20026;-73
2023/04/11 09:55:12;;;;;;;9.82;2.40;;;;;;;;;;5034423;28;20032;-73
2023/04/11 09:57:39;;;;;;;7.25;2.33;;;;;;;;;;5035096;28;20035;-72
2023/04/11 10:00:13;;;;;;;8.02;1.95;;;;;;;;;;5035125;28;20501;-74
2023/04/11 10:02:40;;;;;;;6.00;1.75;;;;;;;;;;5034817;28;20478;-74
2023/04/11 10:05:07;;;;;;;6.25;2.13;;;;;;;;;;5051119;28;20032;-72
2023/04/11 10:07:33;;;;;;;6.82;2.15;;;;;;;;;;5054527;28;20088;-74
2023/04/11 10:09:59;;;;;;;6.75;2.25;;;;;;;;;;5043547;28;20083;-79
2023/04/11 10:12:34;;;;;;;8.52;2.53;;;;;;;;;;5035197;28;20033;-79
2023/04/11 10:15:07;;;;;;;8.90;2.35;;;;;;;;;;5038352;28;20446;-80
2023/04/11 10:17:33;;;;;;;11.90;3.08;;;;;;;;;;5038932;28;20037;-80
2023/04/11 10:19:59;;;;;;;12.73;3.60;;;;;;;;;;5038611;28;20447;-79
2023/04/11 10:22:46;;;;;;;14.02;3.97;;;;;;;;;;5038328;28;20022;-79
2023/04/11 10:25:20;;;;;;;12.35;4.30;;;;;;;;;;5039025;28;20038;-80
2023/04/11 10:27:47;;;;;;;17.27;4.00;;;;;;;;;;5038597;28;20025;-79
2023/04/11 10:30:13;;;;;;;12.15;4.10;;;;;;;;;;5038712;28;20553;-80
2023/04/11 10:32:41;;;;;;;14.85;4.38;;;;;;;;;;5038632;28;20029;-79
2023/04/11 10:35:18;;;;;;;15.52;4.57;;;;;;;;;;5038981;28;20036;-79
2023/04/11 10:37:44;;;;;;;13.52;4.20;;;;;;;;;;5038103;28;20025;-79
2023/04/11 10:40:11;;;;;;;13.95;4.03;;;;;;;;;;5038309;28;20029;-78
2023/04/11 10:42:41;;;;;;;10.70;3.70;;;;;;;;;;5038175;28;20053;-79
2023/04/11 10:48:06;;;;;;;8.85;3.40;;;;;;;;;;5091405;22;20482;-72
2023/04/11 10:50:36;;;;;;;15.32;5.63;;;;;;;;;;5083251;28;20684;-75
2023/04/11 10:53:03;;;;;;;14.30;4.15;;;;;;;;;;5085652;28;20012;-72
2023/04/11 10:55:34;;;;;;;12.55;3.30;;;;;;;;;;5088421;28;20024;-75
2023/04/11 10:58:09;;;;;;;8.57;2.97;;;;;;;;;;5080649;28;20032;-76
2023/04/11 11:00:56;;;;;;;7.15;2.35;;;;;;;;;;5090818;28;20038;-75
2023/04/11 11:03:25;;;;;;;14.25;2.92;;;;;;;;;;5090499;28;20028;-75
2023/04/11 11:08:37;;;;;;;6.10;2.33;;;;;;;;;;5070487;28;20884;-74
2023/04/11 11:11:05;;;;;;;8.27;2.50;;;;;;;;;;5071330;28;20032;-74
2023/04/11 11:13:39;;;;;;;7.07;2.47;;;;;;;;;;5070956;28;20024;-76
2023/04/11 11:16:06;;;;;;;7.43;2.40;;;;;;;;;;5071294;28;20510;-75
2023/04/11 11:18:32;;;;;;;8.80;2.85;;;;;;;;;;5070659;28;20037;-75
2023/04/11 11:20:58;;;;;;;5.95;2.75;;;;;;;;;;5070898;28;20044;-75
2023/04/11 11:23:24;;;;;;;9.13;2.33;;;;;;;;;;5071202;28;20086;-74
2023/04/11 11:25:52;;;;;;;9.32;2.35;;;;;;;;;;5071383;28;20024;-75
2023/04/11 11:28:18;;;;;;;10.57;2.47;;;;;;;;;;5070609;28;20068;-76
2023/04/11 11:30:59;;;;;;;6.78;2.08;;;;;;;;;;5070727;28;20020;-77
2023/04/11 11:33:25;;;;;;;9.25;2.85;;;;;;;;;;5070862;28;20028;-73
2023/04/11 11:35:52;;;;;;;8.80;2.40;;;;;;;;;;5070681;28;20485;-74
2023/04/11 11:38:19;;;;;;;5.47;2.00;;;;;;;;;;5083380;28;20485;-77
2023/04/11 11:40:47;;;;;;;12.27;2.05;;;;;;;;;;5091004;28;20063;-74
2023/04/11 11:43:13;;;;;;;8.27;2.33;;;;;;;;;;5090350;28;20393;-76
2023/04/11 11:45:39;;;;;;;10.10;2.60;;;;;;;;;;5090577;28;20115;-74
2023/04/11 11:48:05;;;;;;;9.30;2.83;;;;;;;;;;5090567;28;20111;-75
2023/04/11 11:50:31;;;;;;;9.75;2.65;;;;;;;;;;5090392;28;20036;-76
2023/04/11 11:53:11;;;;;;;5.88;2.63;;;;;;;;;;5070763;28;20033;-75
2023/04/11 11:55:37;;;;;;;7.85;2.65;;;;;;;;;;5069983;28;20140;-75
2023/04/11 11:58:04;;;;;;;9.18;3.42;;;;;;;;;;5070080;28;20111;-74
2023/04/11 12:00:31;;;;;;;8.98;2.90;;;;;;;;;;5070455;28;20436;-74
2023/04/11 12:02:58;;;;;;;9.68;3.00;;;;;;;;;;5070244;28;20029;-74
2023/04/11 12:05:28;;;;;;;9.38;2.75;;;;;;;;;;5070178;28;20470;-74
2023/04/11 12:07:55;;;;;;;6.18;2.00;;;;;;;;;;5069167;28;20048;-74
2023/04/11 12:10:21;;;;;;;8.38;2.10;;;;;;;;;;5070174;28;20028;-77
2023/04/11 12:12:48;;;;;;;11.55;2.60;;;;;;;;;;5070028;28;20028;-75
2023/04/11 12:15:17;;;;;;;13.30;2.60;;;;;;;;;;5069999;28;20032;-74
2023/04/11 12:17:43;;;;;;;7.55;2.40;;;;;;;;;;5069454;28;20033;-75
2023/04/11 12:20:10;;;;;;;8.95;2.35;;;;;;;;;;5055253;28;20036;-75
2023/04/11 12:22:36;;;;;;;7.80;2.35;;;;;;;;;;5056452;28;20116;-75
2023/04/11 12:25:06;;;;;;;8.57;2.63;;;;;;;;;;5055955;28;20068;-75
2023/04/11 12:27:33;;;;;;;6.80;2.22;;;;;;;;;;5056001;28;20063;-76
2023/04/11 12:30:00;;;;;;;7.72;2.40;;;;;;;;;;5056495;28;20036;-75
2023/04/11 12:32:26;;;;;;;8.70;2.28;;;;;;;;;;5056535;28;20027;-76
2023/04/11 12:34:53;;;;;;;12.48;2.90;;;;;;;;;;5056995;28;20104;-76
2023/04/11 12:37:19;;;;;;;13.82;2.88;;;;;;;;;;5056358;28;20455;-77
2023/04/11 12:39:45;;;;;;;11.35;2.35;;;;;;;;;;5056126;28;20071;-76
2023/04/11 12:42:11;;;;;;;11.63;2.65;;;;;;;;;;5056186;28;20052;-76
2023/04/11 12:44:37;;;;;;;8.18;1.92;;;14.30;1.00;;;;;;5050393;28;20093;-74
2023/04/11 12:47:02;;;;;;;10.15;2.28;;;14.40;1.00;;;;;;5052067;28;20037;-74
2023/04/11 12:49:28;;;;;;;9.43;2.53;;;13.80;1.00;;;;;;5051012;28;20056;-74
2023/04/11 12:51:54;;;;;;;13.57;2.60;;;13.60;38.70;;;;;;5054151;28;20028;-74
2023/04/11 12:54:19;;;;;;;8.93;2.70;;;13.40;49.50;;;;;;5051676;28;20037;-74
2023/04/11 12:56:45;;;;;;;9.98;3.08;;;13.50;99.90;;;;;;5055785;28;20025;-74
2023/04/11 12:59:10;;;;;;;9.25;2.55;;;13.40;1.00;;;;;;5055276;28;20025;-76
2023/04/11 13:01:36;;;;;;;9.93;2.95;;;13.60;99.90;;;;;;5055489;28;20029;-75
2023/04/11 13:04:02;;;;;;;12.52;3.38;;;14.00;1.00;;;;;;5055622;28;20099;-72
2023/04/11 13:06:28;;;;;;;10.05;3.40;;;14.20;1.00;;;;;;5055645;28;20092;-72
2023/04/11 13:08:55;;;;;;;11.30;2.95;;;14.10;1.00;;;;;;5056030;28;20024;-73
2023/04/11 13:11:21;;;;;;;13.05;3.42;;;14.40;1.00;;;;;;5055716;28;20032;-72
2023/04/11 13:13:48;;;;;;;7.68;2.30;;;14.50;1.00;;;;;;5055013;28;20029;-74
2023/04/11 13:16:14;;;;;;;9.68;2.88;;;14.50;99.90;;;;;;5055323;28;20025;-73
2023/04/11 13:18:40;;;;;;;8.45;2.40;;;14.70;99.90;;;;;;5054941;28;20372;-73
2023/04/11 13:21:06;;;;;;;13.73;2.55;;;14.60;99.90;;;;;;5055747;28;20022;-73
2023/04/11 13:23:31;;;;;;;7.07;2.30;;;14.30;99.90;;;;;;5055163;28;20493;-74
2023/04/11 13:25:57;;;;;;;5.18;2.22;;;14.20;99.90;;;;;;5055732;28;20021;-74
2023/04/11 13:28:22;;;;;;;7.72;2.15;;;14.00;99.90;;;;;;5055269;28;20028;-73
2023/04/11 13:30:48;;;;;;;5.88;2.00;;;14.20;99.90;;;;;;5053729;28;20025;-72
2023/04/11 13:33:13;;;;;;;6.97;2.13;;;14.50;99.90;;;;;;5055121;28;20025;-74
2023/04/11 13:35:39;;;;;;;8.30;2.03;;;14.30;99.90;;;;;;5055406;28;20021;-73
2023/04/11 13:38:05;;;;;;;13.40;2.65;;;14.00;99.90;;;;;;5054414;28;20029;-73
2023/04/11 13:40:30;;;;;;;9.35;2.38;;;14.10;99.90;;;;;;5054508;28;20075;-73
2023/04/11 13:42:56;;;;;;;12.57;2.40;;;14.20;99.90;;;;;;5054061;28;20036;-73
2023/04/11 13:45:21;;;;;;;11.77;2.85;;;14.10;99.90;;;;;;5053967;28;20429;-72
2023/04/11 13:47:47;;;;;;;9.85;2.20;;;14.20;99.90;;;;;;5053520;28;20025;-75
2023/04/11 13:50:12;;;;;;;7.93;2.25;;;14.40;99.90;;;;;;5054353;28;20025;-73
2023/04/11 13:52:38;;;;;;;9.45;2.38;;;14.60;99.90;;;;;;5054363;28;20028;-73
2023/04/11 13:55:05;;;;;;;8.27;2.03;;;14.50;99.90;;;;;;5055109;28;20025;-74
2023/04/11 13:57:30;;;;;;;7.70;2.13;;;14.30;99.90;;;;;;5054769;28;20031;-73
2023/04/11 13:59:56;;;;;;;8.15;1.60;;;14.60;99.90;;;;;;5054878;28;20550;-74
2023/04/11 14:02:21;;;;;;;6.35;1.90;;;14.90;99.90;;;;;;5054469;28;20029;-73
2023/04/11 14:04:48;;;;;;;7.43;1.60;;;14.60;99.90;;;;;;5054654;28;20115;-73
2023/04/11 14:07:13;;;;;;;5.05;1.50;;;14.50;94.30;;;;;;5053741;28;20045;-73
2023/04/11 14:09:39;;;;;;;8.63;2.38;;;14.20;11.40;;;;;;5054403;28;20063;-70
2023/04/11 14:12:05;;;;;;;5.78;1.52;;;13.80;99.90;;;;;;5054744;28;20483;-71
2023/04/11 14:14:30;;;;;;;5.72;1.80;;;13.60;99.90;;;;;;5054738;28;20025;-70
2023/04/11 14:16:56;;;;;;;7.00;1.80;;;13.50;99.90;;;;;;5054503;28;20071;-72
2023/04/11 14:19:23;;;;;;;8.02;1.75;;;13.40;99.90;;;;;;5054672;28;20056;-71
2023/04/11 14:21:50;;;;;;;6.80;1.85;;;13.50;1.00;;;;;;5053280;28;20021;-71
2023/04/11 14:24:18;;;;;;;4.47;1.17;;;13.70;99.90;;;;;;5053135;28;20075;-71